Flight Track Log - Related Links

Times and Time Zones

All times are in EST time to prevent confusion due to time zone crossing. See the SWA1035 flight status page for this flight to view local times or setup timezone preferences in your user account.

Time Position Orientation Groundspeed Altitude Reporting Facility
EST Latitude Longitude Course Direction KTS MPH feet Rate Location/Type
Sat 01:14:48 PM 36.0753 -115.1739 271° West 170 196 3,400  Level Los Angeles Center
Sat 01:15:19 PM 36.0756 -115.2056 271° West 170 196 4,400 2,260 Climbing Los Angeles Center
Sat 01:16:05 PM 36.0756 -115.2561 270° West 196 226 6,300 2,400 Climbing Los Angeles Center
Sat 01:16:14 PM 36.0783 -115.2686 285° West 210 242 6,600 2,516 Climbing Los Angeles Center
Sat 01:17:07 PM 36.1211 -115.2942 334° Northwest 210 242 8,900 2,833 Climbing Los Angeles Center
Sat 01:17:26 PM 36.1425 -115.2953 358° North 224 258 10,000 3,000 Climbing Los Angeles Center
Sat 01:18:09 PM 36.1725 -115.2553 47° Northeast 239 275 12,000 2,114 Climbing Los Angeles Center
Sat 01:19:11 PM 36.1953 -115.1500 75° East 311 358 13,700 1,887 Climbing Los Angeles Center
Sat 01:20:13 PM 36.1964 -115.0278 89° East 354 407 15,900 2,323 Climbing Los Angeles Center
Sat 01:21:15 PM 36.1981 -114.8994 89° East 374 430 18,500 2,274 Climbing Los Angeles Center
Sat 01:22:17 PM 36.1994 -114.7628 89° East 395 455 20,600 2,081 Climbing Los Angeles Center
Sat 01:23:19 PM 36.1983 -114.6178 91° East 418 481 22,800 1,920 Climbing Los Angeles Center
Sat 01:24:22 PM 36.1961 -114.4683 91° East 431 496 24,600 1,920 Climbing Los Angeles Center
Sat 01:25:24 PM 36.1931 -114.2831 91° East 449 517 26,800 1,790 Climbing Los Angeles Center
Sat 01:26:26 PM 36.2075 -114.1283 83° East 452 520 28,300 1,403 Climbing Los Angeles Center
Sat 01:27:28 PM 36.2253 -113.9728 82° East 456 525 29,700 1,403 Climbing Los Angeles Center
Sat 01:28:30 PM 36.2447 -113.8131 81° East 467 537 31,200 1,548 Climbing Los Angeles Center
Sat 01:29:32 PM 36.2881 -113.6692 69° East 448 516 32,900 1,645 Climbing Los Angeles Center
Sat 01:30:34 PM 36.3342 -113.5342 67° East 431 496 34,600 1,403 Climbing Los Angeles Center
Sat 01:31:36 PM 36.3903 -113.3717 67° East 428 493 35,800 774 Climbing Los Angeles Center
Sat 01:32:38 PM 36.4372 -113.2325 67° East 436 502 36,200 528 Climbing Los Angeles Center
Sat 01:33:41 PM 36.4911 -113.0758 67° East 452 520 36,900 384 Climbing Los Angeles Center
Sat 01:34:43 PM 36.5386 -112.9325 68° East 453 521 37,000 48 Climbing Los Angeles Center
Sat 01:35:45 PM 36.5869 -112.7908 67° East 449 517 37,000  Level Los Angeles Center
Sat 01:36:47 PM 36.6336 -112.6494 68° East 445 512 37,000  Level Los Angeles Center
Sat 01:37:49 PM 36.6814 -112.5058 67° East 449 517 37,000  Level Los Angeles Center
Sat 01:38:51 PM 36.7403 -112.3303 67° East 458 527 37,000  Level Los Angeles Center
Sat 01:39:53 PM 36.7883 -112.1850 68° East 458 527 37,000  Level Los Angeles Center
Sat 01:40:55 PM 36.8356 -112.0392 68° East 457 526 37,000  Level Los Angeles Center
Sat 01:41:57 PM 36.8828 -111.8933 68° East 456 525 37,000  Level Los Angeles Center
Sat 01:42:59 PM 36.9308 -111.7483 67° East 454 522 37,000  Level Los Angeles Center
Sat 01:43:50 PM 36.9792 -111.6028 67° East 452 520 37,000  Level Denver Center
Sat 01:44:52 PM 37.0253 -111.4569 68° East 453 521 37,000  Level Denver Center
Sat 01:45:54 PM 37.0717 -111.3117 68° East 454 522 37,000  Level Denver Center
Sat 01:46:56 PM 37.1181 -111.1625 69° East 461 531 37,000  Level Denver Center
Sat 01:47:59 PM 37.1653 -111.0147 68° East 460 529 37,000  Level Denver Center
Sat 01:49:01 PM 37.2214 -110.8336 69° East 465 535 37,000  Level Denver Center
Sat 01:50:03 PM 37.2700 -110.6858 68° East 461 531 37,000  Level Denver Center
Sat 01:51:05 PM 37.3186 -110.5356 68° East 465 535 37,000  Level Denver Center
Sat 01:52:07 PM 37.3672 -110.3861 68° East 465 535 37,000  Level Denver Center
Sat 01:53:09 PM 37.4158 -110.2353 68° East 467 537 37,000  Level Denver Center
Sat 01:54:11 PM 37.4692 -110.0619 69° East 469 540 37,000  Level Denver Center
Sat 01:55:13 PM 37.5153 -109.9181 68° East 465 535 37,000  Level Denver Center
Sat 01:56:15 PM 37.5686 -109.7475 68° East 467 537 37,000  Level Denver Center
Sat 01:57:17 PM 37.6144 -109.6008 68° East 468 539 37,000  Level Denver Center
Sat 01:58:31 PM 37.6681 -109.4303 68° East 467 537 37,000  Level Denver Center
Sat 01:59:34 PM 37.7208 -109.2619 68° East 463 533 37,000  Level Denver Center
Sat 02:00:36 PM 37.7719 -109.0908 69° East 465 535 37,000  Level Denver Center
Sat 02:01:38 PM 37.8169 -108.9464 68° East 463 533 37,000  Level Denver Center
Sat 02:02:40 PM 37.8678 -108.7767 69° East 461 531 37,000  Level Denver Center
Sat 02:03:54 PM 37.9117 -108.6308 69° East 462 532 37,000  Level Denver Center
Sat 02:04:57 PM 37.9703 -108.4372 69° East 462 532 37,000  Level Denver Center
Sat 02:05:59 PM 38.0128 -108.2917 70° East 461 531 37,000  Level Denver Center
Sat 02:07:13 PM 38.0644 -108.1225 69° East 461 531 37,000  Level Denver Center
Sat 02:08:16 PM 38.1172 -107.9428 69° East 467 537 37,000  Level Denver Center
Sat 02:09:18 PM 38.1667 -107.7717 70° East 464 534 37,000  Level Denver Center
Sat 02:10:20 PM 38.2092 -107.6239 70° East 464 534 37,000  Level Denver Center
Sat 02:11:22 PM 38.2597 -107.4508 70° East 469 540 37,000  Level Denver Center
Sat 02:12:24 PM 38.3025 -107.3031 70° East 465 535 37,000  Level Denver Center
Sat 02:13:38 PM 38.3461 -107.1497 70° East 463 533 37,000  Level Denver Center
Sat 02:14:41 PM 38.3994 -106.9644 70° East 464 534 37,000  Level Denver Center
Sat 02:15:43 PM 38.4517 -106.7767 70° East 468 539 37,000  Level Denver Center
Sat 02:16:45 PM 38.4956 -106.6208 70° East 469 540 37,000  Level Denver Center
Sat 02:17:47 PM 38.5303 -106.4956 70° East 469 540 37,000  Level Denver Center
Sat 02:18:49 PM 38.5828 -106.3094 70° East 466 536 37,000  Level Denver Center
Sat 02:19:51 PM 38.6325 -106.1289 71° East 464 534 37,000  Level Denver Center
Sat 02:20:53 PM 38.6733 -105.9739 71° East 463 533 37,000  Level Denver Center
Sat 02:21:56 PM 38.7167 -105.8178 70° East 465 535 37,000  Level Denver Center
Sat 02:22:58 PM 38.7600 -105.6617 70° East 467 537 37,000  Level Denver Center
Sat 02:24:00 PM 38.8006 -105.5069 71° East 461 531 37,000  Level Denver Center
Sat 02:25:02 PM 38.8500 -105.3186 71° East 466 536 37,000  Level Denver Center
Sat 02:26:04 PM 38.8906 -105.1653 71° East 457 526 37,000  Level Denver Center
Sat 02:27:18 PM 38.9314 -105.0100 71° East 461 531 37,000  Level Denver Center
Sat 02:28:21 PM 38.9800 -104.8267 71° East 457 526 37,000  Level Denver Center
Sat 02:29:23 PM 39.0214 -104.6731 71° East 457 526 37,000  Level Denver Center
Sat 02:30:25 PM 39.0683 -104.4875 72° East 460 529 37,000  Level Denver Center
Sat 02:31:27 PM 39.1081 -104.3311 72° East 464 534 37,000  Level Denver Center
Sat 02:32:41 PM 39.1475 -104.1750 72° East 463 533 37,000  Level Denver Center
Sat 02:33:44 PM 39.1958 -103.9853 72° East 466 536 37,000  Level Denver Center
Sat 02:34:46 PM 39.2414 -103.8003 72° East 457 526 37,000  Level Denver Center
Sat 02:35:48 PM 39.2811 -103.6447 72° East 458 527 37,000  Level Denver Center
Sat 02:36:50 PM 39.3192 -103.4886 72° East 456 525 37,000  Level Denver Center
Sat 02:37:52 PM 39.3592 -103.3300 72° East 464 534 37,000  Level Denver Center
Sat 02:38:54 PM 39.3997 -103.1711 72° East 467 537 37,000  Level Denver Center
Sat 02:39:56 PM 39.4381 -103.0094 73° East 469 540 37,000  Level Denver Center
Sat 02:40:58 PM 39.4844 -102.8161 73° East 472 543 37,000  Level Denver Center
Sat 02:42:00 PM 39.5211 -102.6522 74° East 476 548 37,000  Level Denver Center
Sat 02:43:03 PM 39.5606 -102.4903 72° East 475 547 37,000  Level Denver Center
Sat 02:44:05 PM 39.6056 -102.3044 72° East 477 549 37,000  Level Denver Center
Sat 02:45:07 PM 39.6411 -102.1478 74° East 473 544 37,000  Level Denver Center
Sat 02:46:09 PM 39.6767 -101.9919 73° East 471 542 37,000  Level Denver Center
Sat 02:47:11 PM 39.7192 -101.8100 73° East 472 543 37,000  Level Denver Center
Sat 02:48:13 PM 39.7542 -101.6533 74° East 472 543 37,000  Level Denver Center
Sat 02:49:15 PM 39.7903 -101.4967 73° East 474 545 37,000  Level Denver Center
Sat 02:50:17 PM 39.8325 -101.3131 73° East 476 548 37,000  Level Denver Center
Sat 02:51:19 PM 39.8739 -101.1256 74° East 481 554 37,000  Level Denver Center
Sat 02:52:21 PM 39.9089 -100.9667 74° East 480 552 37,000  Level Denver Center
Sat 02:53:23 PM 39.9442 -100.8053 74° East 484 557 37,000  Level Denver Center
Sat 02:54:26 PM 39.9867 -100.6142 74° East 491 565 37,000  Level Denver Center
Sat 02:55:28 PM 40.0281 -100.4236 74° East 491 565 37,000  Level Denver Center
Sat 02:56:30 PM 40.0625 -100.2608 74° East 489 563 37,000  Level Denver Center
Sat 02:57:32 PM 40.1028 -100.0708 74° East 488 562 37,000  Level Denver Center
Sat 02:58:46 PM 40.1411 -99.8903 74° East 486 559 37,000  Level Denver Center
Sat 02:59:49 PM 40.1839 -99.6872 75° East 484 557 37,000  Level Denver Center
Sat 03:00:51 PM 40.2186 -99.5192 75° East 480 552 37,000  Level Denver Center
Sat 03:01:53 PM 40.2536 -99.3497 75° East 483 556 37,000  Level Denver Center
Sat 03:02:55 PM 40.2881 -99.1797 75° East 485 558 37,000  Level Denver Center
Sat 03:03:26 PM 40.3097 -99.0789 74° East 484 557 37,000  Level Minneapolis Center
Sat 03:04:27 PM 40.3436 -98.9061 76° East 487 560 37,000  Level Minneapolis Center
Sat 03:05:29 PM 40.3786 -98.7328 75° East 492 566 37,000  Level Minneapolis Center
Sat 03:06:31 PM 40.4125 -98.5586 76° East 494 568 37,000  Level Minneapolis Center
Sat 03:07:33 PM 40.4539 -98.3478 75° East 498 573 37,000  Level Minneapolis Center
Sat 03:08:34 PM 40.4872 -98.1736 76° East 496 571 37,000  Level Minneapolis Center
Sat 03:09:36 PM 40.5217 -97.9983 75° East 497 572 37,000  Level Minneapolis Center
Sat 03:10:38 PM 40.5550 -97.8217 76° East 499 574 37,000  Level Minneapolis Center
Sat 03:11:39 PM 40.5886 -97.6456 76° East 498 573 37,000  Level Minneapolis Center
Sat 03:12:41 PM 40.6211 -97.4692 76° East 498 573 37,000  Level Minneapolis Center
Sat 03:13:43 PM 40.6550 -97.2889 76° East 496 571 37,000  Level Minneapolis Center
Sat 03:14:44 PM 40.6872 -97.1150 76° East 492 566 37,000  Level Minneapolis Center
Sat 03:15:46 PM 40.7244 -96.9078 77° East 487 560 37,000  Level Minneapolis Center
Sat 03:16:48 PM 40.7556 -96.7342 77° East 488 562 37,000  Level Minneapolis Center
Sat 03:17:49 PM 40.7869 -96.5594 77° East 490 564 37,000  Level Minneapolis Center
Sat 03:18:51 PM 40.8183 -96.3842 77° East 493 567 37,000  Level Minneapolis Center
Sat 03:19:52 PM 40.8494 -96.2072 77° East 496 571 37,000  Level Minneapolis Center
Sat 03:20:54 PM 40.8803 -96.0303 77° East 498 573 37,000  Level Minneapolis Center
Sat 03:21:56 PM 40.9164 -95.8172 77° East 499 574 37,000 98 Level Minneapolis Center
Sat 03:22:57 PM 40.9469 -95.6386 77° East 501 577 37,200 537 Climbing Minneapolis Center
Sat 03:23:59 PM 40.9781 -95.4542 77° East 509 586 38,100 829 Climbing Minneapolis Center
Sat 03:25:00 PM 41.0100 -95.2675 77° East 517 595 38,900 439 Climbing Minneapolis Center
Sat 03:26:02 PM 41.0403 -95.0806 78° East 520 598 39,000 49 Climbing Minneapolis Center
Sat 03:27:03 PM 41.0711 -94.8928 78° East 523 602 39,000  Level Minneapolis Center
Sat 03:28:05 PM 41.1017 -94.7047 78° East 523 602 39,000  Level Minneapolis Center
Sat 03:29:06 PM 41.1308 -94.5172 78° East 522 601 39,000  Level Minneapolis Center
Sat 03:30:08 PM 41.1664 -94.2919 78° East 522 601 39,000  Level Minneapolis Center
Sat 03:31:10 PM 41.1931 -94.1039 79° East 522 601 39,000  Level Minneapolis Center
Sat 03:32:11 PM 41.2231 -93.9142 78° East 523 602 39,000  Level Minneapolis Center
Sat 03:33:13 PM 41.2522 -93.7217 79° East 526 605 39,000  Level Minneapolis Center
Sat 03:34:14 PM 41.2825 -93.5272 78° East 531 611 39,000  Level Minneapolis Center
Sat 03:35:15 PM 41.3117 -93.3308 79° East 537 618 39,000  Level Minneapolis Center
Sat 03:36:17 PM 41.3400 -93.1386 79° East 535 616 39,000  Level Minneapolis Center
Sat 03:37:18 PM 41.3681 -92.9422 79° East 537 618 39,000  Level Minneapolis Center
Sat 03:38:20 PM 41.4031 -92.7089 79° East 537 618 39,000  Level Minneapolis Center
Sat 03:39:21 PM 41.4294 -92.5114 80° East 539 620 39,000  Level Minneapolis Center
Sat 03:40:22 PM 41.4578 -92.3142 79° East 541 623 39,000  Level Minneapolis Center
Sat 03:41:24 PM 41.4847 -92.1181 80° East 540 621 39,000  Level Minneapolis Center
Sat 03:42:25 PM 41.5119 -91.9214 79° East 540 621 39,000  Level Minneapolis Center
Sat 03:43:27 PM 41.5406 -91.7044 80° East 544 626 39,000  Level Minneapolis Center
Sat 03:44:43 PM 41.5728 -91.4539 80° East 545 627 39,000  Level Chicago Center
Sat 03:45:45 PM 41.5981 -91.2592 80° East 541 623 39,000  Level Chicago Center
Sat 03:46:47 PM 41.6231 -91.0639 80° East 540 621 39,000  Level Chicago Center
Sat 03:47:49 PM 41.6475 -90.8661 81° East 543 625 39,000  Level Chicago Center
Sat 03:48:50 PM 41.6725 -90.6697 80° East 542 624 39,000  Level Chicago Center
Sat 03:49:52 PM 41.7006 -90.4339 81° East 546 628 39,000  Level Chicago Center
Sat 03:50:54 PM 41.7253 -90.2342 81° East 544 626 39,000  Level Chicago Center
Sat 03:51:55 PM 41.7483 -90.0331 81° East 543 625 39,000  Level Chicago Center
Sat 03:52:57 PM 41.7728 -89.8306 81° East 547 629 39,000  Level Chicago Center
Sat 03:53:59 PM 41.7953 -89.6306 81° East 542 624 39,000  Level Chicago Center
Sat 03:55:00 PM 41.8211 -89.4064 81° East 539 620 39,000  Level Chicago Center
Sat 03:56:02 PM 41.8417 -89.2097 82° East 535 616 39,000  Level Chicago Center
Sat 03:57:04 PM 41.8628 -89.0133 82° East 532 612 39,000  Level Chicago Center
Sat 03:58:05 PM 41.8836 -88.8161 82° East 535 616 39,000  Level Chicago Center
Sat 03:59:07 PM 41.9050 -88.6178 82° East 536 617 39,000  Level Chicago Center
Sat 04:00:09 PM 41.9256 -88.4194 82° East 537 618 39,000  Level Chicago Center
Sat 04:01:10 PM 41.9453 -88.2192 82° East 537 618 39,000  Level Chicago Center
Sat 04:02:12 PM 41.9681 -87.9811 83° East 535 616 39,000  Level Chicago Center
Sat 04:03:13 PM 41.9886 -87.7819 82° East 535 616 39,000  Level Chicago Center
Sat 04:04:15 PM 42.0075 -87.5825 83° East 537 618 39,000  Level Chicago Center
Sat 04:05:16 PM 42.0253 -87.3836 83° East 537 618 39,000  Level Chicago Center
Sat 04:06:18 PM 42.0425 -87.1808 83° East 542 624 39,000  Level Chicago Center
Sat 04:07:20 PM 42.0619 -86.9792 83° East 544 626 39,000  Level Chicago Center
Sat 04:08:21 PM 42.0789 -86.7772 83° East 544 626 39,000  Level Chicago Center
Sat 04:09:23 PM 42.0994 -86.5664 82° East 550 633 39,000  Level Chicago Center
Sat 04:10:25 PM 42.1164 -86.3644 83° East 544 626 39,000  Level Chicago Center
Sat 04:11:26 PM 42.1342 -86.1614 83° East 544 626 39,000  Level Chicago Center
Sat 04:12:28 PM 42.1514 -85.9342 84° East 544 626 39,000  Level Chicago Center
Sat 04:13:29 PM 42.1672 -85.7336 84° East 543 625 39,000  Level Chicago Center
Sat 04:14:31 PM 42.1828 -85.5289 84° East 552 635 39,000  Level Chicago Center
Sat 04:15:33 PM 42.1983 -85.3247 84° East 555 639 39,000  Level Chicago Center
Sat 04:16:34 PM 42.2175 -85.0761 84° East 558 642 39,000  Level Chicago Center
Sat 04:17:36 PM 42.2325 -84.8703 84° East 556 640 39,000  Level Chicago Center
Sat 04:18:38 PM 42.2464 -84.6656 85° East 552 635 39,000  Level Chicago Center
Sat 04:19:39 PM 42.2611 -84.4606 84° East 552 635 39,000  Level Chicago Center
Sat 04:20:21 PM 42.2703 -84.3108 85° East 551 634 39,000  Level Cleveland Center
Sat 04:21:23 PM 42.2833 -84.1047 85° East 552 635 39,000  Level Cleveland Center
Sat 04:22:25 PM 42.2967 -83.8994 85° East 550 633 39,000 -387 Level Cleveland Center
Sat 04:23:27 PM 42.3092 -83.6933 85° East 551 634 38,200 -927 Descending Cleveland Center
Sat 04:24:28 PM 42.3233 -83.4483 85° East 552 635 37,100 -1,024 Descending Cleveland Center
Sat 04:25:30 PM 42.3361 -83.2400 85° East 551 634 36,100 -871 Descending Cleveland Center
Sat 04:26:32 PM 42.3458 -83.0572 86° East 551 634 35,300 -823 Descending Cleveland Center
Sat 04:27:34 PM 42.3564 -82.8519 86° East 549 632 34,400 -1,065 Descending Cleveland Center
Sat 04:28:36 PM 42.3681 -82.6119 86° East 535 616 33,100 -1,122 Descending Cleveland Center
Sat 04:29:37 PM 42.3778 -82.4169 86° East 524 603 32,100 -976 Descending Cleveland Center
Sat 04:30:39 PM 42.3869 -82.2269 86° East 511 588 31,100 -968 Descending Cleveland Center
Sat 04:31:41 PM 42.3961 -82.0422 86° East 502 578 30,100 -976 Descending Cleveland Center
Sat 04:32:42 PM 42.4058 -81.8542 86° East 496 571 29,100 -976 Descending Cleveland Center
Sat 04:33:44 PM 42.4122 -81.6750 87° East 478 550 28,100 -968 Descending Cleveland Center
Sat 04:34:46 PM 42.4203 -81.4981 86° East 470 541 27,100 -537 Descending Cleveland Center
Sat 04:35:47 PM 42.4283 -81.2911 87° East 467 537 27,000 -49 Descending Cleveland Center
Sat 04:36:49 PM 42.4350 -81.1131 87° East 469 540 27,000  Level Cleveland Center
Sat 04:37:51 PM 42.4436 -80.9342 86° East 471 542 27,000  Level Cleveland Center
Sat 04:38:52 PM 42.4811 -80.7589 74° East 480 552 27,000 -585 Level Cleveland Center
Sat 04:39:54 PM 42.5233 -80.5894 71° East 473 544 25,800 -2,000 Descending Cleveland Center
Sat 04:40:55 PM 42.5639 -80.4158 72° East 476 548 22,900 -2,439 Descending Cleveland Center
Sat 04:41:57 PM 42.6044 -80.2394 73° East 482 555 20,800 -1,902 Descending Cleveland Center
Sat 04:42:58 PM 42.6431 -80.0697 73° East 469 540 19,000 -1,707 Descending Cleveland Center
Sat 04:44:00 PM 42.6792 -79.9189 72° East 437 503 17,300 -1,694 Descending Cleveland Center
Sat 04:45:02 PM 42.7114 -79.7708 73° East 411 473 15,500 -1,805 Descending Cleveland Center
Sat 04:46:03 PM 42.7489 -79.6044 73° East 385 443 13,600 -1,512 Descending Cleveland Center
Sat 04:47:05 PM 42.7625 -79.4686 82° East 364 419 12,400 -1,512 Descending Cleveland Center
Sat 04:48:06 PM 42.7694 -79.3364 86° East 352 405 10,500 -1,770 Descending Cleveland Center
Sat 04:49:07 PM 42.7767 -79.2017 86° East 342 394 8,800 -1,707 Descending Cleveland Center
Sat 04:50:09 PM 42.7856 -79.0797 84° East 315 362 7,000 -2,195 Descending Cleveland Center
Sat 04:51:10 PM 42.7883 -78.9703 88° East 285 328 4,300 -1,951 Descending Cleveland Center
Sat 04:52:12 PM 42.8153 -78.8936 64° Northeast 247 284 3,000 -976 Descending Cleveland Center
Sat 04:53:13 PM 42.8567 -78.8392 44° Northeast 206 237 2,300 -488 Descending Cleveland Center
Sat 04:54:15 PM 42.8892 -78.7978 43° Northeast 167 192 2,000 -244 Descending Cleveland Center
Sat 04:55:16 PM 42.9169 -78.7597 45° Northeast 159 183 1,800 -197 Descending Cleveland Center
Sat 04:57:00 PM 42.9333 -78.7167 42° Northeast  Level FlightAware Approximate
Sat 05:04:00 PM 42.9404 -78.7306 42° Northeast  Level Estimated

Login

Don't have an account? Register now (free) for customized features, flight alerts, and more!